createdAt,value
2017-09-06T00:02:09.059Z,93.40
2017-09-06T00:04:37.765Z,93.50
2017-09-06T00:07:06.263Z,93.60
2017-09-06T00:09:34.650Z,93.80
2017-09-06T00:12:03.054Z,94.00
2017-09-06T00:14:31.574Z,94.10
2017-09-06T00:16:59.983Z,94.10
2017-09-06T00:19:28.390Z,94.20
2017-09-06T00:21:56.842Z,94.30
2017-09-06T00:24:25.274Z,94.30
2017-09-06T00:26:53.990Z,94.50
2017-09-06T00:29:22.483Z,94.60
2017-09-06T00:31:50.899Z,94.60
2017-09-06T00:34:19.326Z,94.50
2017-09-06T00:36:47.742Z,94.60
2017-09-06T00:39:16.150Z,94.50
2017-09-06T00:41:44.678Z,94.70
2017-09-06T00:44:13.107Z,94.70
2017-09-06T00:46:41.524Z,94.80
2017-09-06T00:49:09.979Z,94.60
2017-09-06T00:51:38.530Z,94.50
2017-09-06T00:54:07.031Z,94.40
2017-09-06T00:56:35.503Z,94.60
2017-09-06T00:59:03.972Z,94.80
2017-09-06T01:01:32.373Z,95.00
2017-09-06T01:04:00.838Z,95.20
2017-09-06T01:06:29.304Z,95.20
2017-09-06T01:08:57.756Z,95.30
2017-09-06T01:11:26.181Z,95.40
2017-09-06T01:13:54.642Z,95.40
2017-09-06T01:16:23.115Z,95.50
2017-09-06T01:18:51.578Z,95.50
2017-09-06T01:21:20.018Z,95.60
2017-09-06T01:23:48.496Z,95.70
2017-09-06T01:26:16.897Z,95.60
2017-09-06T01:28:45.398Z,95.50
2017-09-06T01:31:13.934Z,95.40
2017-09-06T01:33:42.345Z,95.20
2017-09-06T01:36:10.814Z,95.30
2017-09-06T01:38:39.399Z,95.30
2017-09-06T01:41:08.004Z,95.30
2017-09-06T01:43:36.720Z,95.40
2017-09-06T01:46:05.252Z,95.50
2017-09-06T01:48:33.658Z,95.60
2017-09-06T01:51:02.084Z,95.50
2017-09-06T01:53:30.505Z,95.60
2017-09-06T01:55:58.923Z,95.50
2017-09-06T01:58:27.330Z,95.60
2017-09-06T02:00:55.922Z,95.50
2017-09-06T02:03:24.314Z,95.50
2017-09-06T02:05:52.828Z,95.50
2017-09-06T02:08:21.260Z,95.50
2017-09-06T02:10:50.555Z,95.40
2017-09-06T02:13:19.011Z,95.40
2017-09-06T02:15:47.413Z,95.40
2017-09-06T02:18:15.839Z,95.50
2017-09-06T02:20:44.248Z,95.40
2017-09-06T02:23:12.649Z,95.50
2017-09-06T02:25:41.064Z,95.30
2017-09-06T02:28:09.468Z,95.50
2017-09-06T02:30:37.870Z,95.50
2017-09-06T02:33:06.394Z,95.60
2017-09-06T02:35:34.853Z,95.50
2017-09-06T02:38:03.297Z,95.30
2017-09-06T02:40:31.713Z,95.80
2017-09-06T02:43:00.121Z,95.50
2017-09-06T02:45:28.552Z,95.60
2017-09-06T02:47:56.977Z,95.40
2017-09-06T02:50:25.399Z,95.60
2017-09-06T02:52:53.827Z,95.50
2017-09-06T02:55:22.214Z,95.70
2017-09-06T02:57:50.630Z,95.80
2017-09-06T03:00:19.283Z,95.90
2017-09-06T03:02:47.705Z,95.90
2017-09-06T03:05:16.110Z,95.80
2017-09-06T03:07:44.527Z,95.70
2017-09-06T03:10:13.042Z,95.90
2017-09-06T03:12:41.542Z,96.10
2017-09-06T03:15:10.101Z,95.90
2017-09-06T03:17:38.574Z,95.80
2017-09-06T03:20:07.132Z,95.70
2017-09-06T03:22:35.652Z,95.70
2017-09-06T03:25:04.137Z,95.70
2017-09-06T03:27:32.581Z,96.00
2017-09-06T03:30:01.041Z,95.90
2017-09-06T03:32:29.611Z,96.00
2017-09-06T03:34:58.050Z,96.00
2017-09-06T03:37:26.534Z,95.70
2017-09-06T03:39:54.961Z,95.70
2017-09-06T03:42:23.380Z,95.20
2017-09-06T03:44:51.783Z,95.20
2017-09-06T03:47:20.213Z,95.00
2017-09-06T03:49:48.675Z,96.00
2017-09-06T03:52:17.115Z,97.10
2017-09-06T03:54:45.500Z,98.10
2017-09-06T03:57:13.958Z,98.10
2017-09-06T03:59:42.416Z,98.80
2017-09-06T04:02:10.814Z,98.60
2017-09-06T04:04:39.334Z,98.30
2017-09-06T04:07:07.740Z,98.40
2017-09-06T04:09:36.134Z,98.70
2017-09-06T04:12:04.583Z,98.70
2017-09-06T04:14:33.043Z,98.80
2017-09-06T04:17:01.513Z,98.80
2017-09-06T04:19:30.021Z,98.80
2017-09-06T04:21:58.402Z,98.90
2017-09-06T04:24:26.797Z,99.10
2017-09-06T04:26:55.238Z,99.10
2017-09-06T04:29:23.758Z,99.30
2017-09-06T04:31:52.188Z,99.20
2017-09-06T04:34:20.599Z,99.30
2017-09-06T04:36:49.958Z,99.20
2017-09-06T04:39:18.420Z,99.30
2017-09-06T04:41:46.926Z,99.50
2017-09-06T04:44:15.574Z,99.90
2017-09-06T04:46:44.799Z,99.80
2017-09-06T04:49:13.202Z,99.70
2017-09-06T04:51:41.658Z,99.80
2017-09-06T04:54:10.168Z,99.90
2017-09-06T04:56:38.637Z,99.90
2017-09-06T04:59:07.046Z,99.90
2017-09-06T05:01:35.493Z,99.90
2017-09-06T05:04:03.904Z,99.90
2017-09-06T05:06:32.835Z,99.90
2017-09-06T05:09:01.940Z,99.90
2017-09-06T05:11:30.334Z,99.90
2017-09-06T05:13:58.790Z,99.90
2017-09-06T05:16:29.278Z,99.90
2017-09-06T05:18:57.724Z,99.90
2017-09-06T05:21:26.187Z,99.90
2017-09-06T05:23:54.633Z,99.90
2017-09-06T05:26:23.042Z,99.90
2017-09-06T05:28:51.459Z,99.90
2017-09-06T05:31:19.916Z,99.90
2017-09-06T05:33:49.302Z,99.90
2017-09-06T05:36:17.705Z,99.90
2017-09-06T05:38:46.214Z,99.90
2017-09-06T05:41:15.790Z,99.90
2017-09-06T05:43:45.068Z,99.90
2017-09-06T05:46:14.685Z,99.90
2017-09-06T05:48:44.192Z,99.90
2017-09-06T05:51:13.030Z,99.90
2017-09-06T05:53:41.466Z,99.90
2017-09-06T05:56:09.895Z,99.90
2017-09-06T05:58:38.323Z,99.90
2017-09-06T06:01:06.857Z,99.90
2017-09-06T06:03:35.306Z,99.90
2017-09-06T06:06:03.710Z,99.90
2017-09-06T06:08:32.252Z,99.90
2017-09-06T06:11:00.680Z,99.90
2017-09-06T06:13:29.154Z,99.90
2017-09-06T06:15:57.619Z,99.90
2017-09-06T06:18:26.059Z,99.90
2017-09-06T06:20:54.496Z,99.90
2017-09-06T06:23:22.928Z,99.80
2017-09-06T06:25:51.457Z,99.60
2017-09-06T06:28:19.857Z,99.50
2017-09-06T06:30:48.263Z,99.30
2017-09-06T06:33:16.695Z,99.30
2017-09-06T06:35:45.147Z,99.10
2017-09-06T06:38:13.687Z,99.10
2017-09-06T06:40:42.160Z,99.80
2017-09-06T06:43:10.544Z,99.90
2017-09-06T06:45:38.960Z,99.90
2017-09-06T06:48:07.396Z,99.90
2017-09-06T06:50:35.819Z,99.90
2017-09-06T06:53:04.252Z,99.50
2017-09-06T06:55:32.657Z,99.30
2017-09-06T06:58:01.039Z,98.60
2017-09-06T07:00:29.545Z,98.40
2017-09-06T07:02:58.019Z,97.90
2017-09-06T07:05:26.488Z,98.10
2017-09-06T07:07:54.919Z,97.30
2017-09-06T07:10:23.360Z,97.10
2017-09-06T07:12:51.785Z,97.20
2017-09-06T07:15:20.220Z,97.00
2017-09-06T07:17:48.699Z,97.00
2017-09-06T07:20:17.136Z,97.00
2017-09-06T07:22:45.550Z,96.60
2017-09-06T07:25:22.260Z,96.90
2017-09-06T07:27:50.766Z,97.00
2017-09-06T07:30:19.240Z,96.90
2017-09-06T07:32:47.745Z,97.30
2017-09-06T07:35:16.150Z,96.70
2017-09-06T07:37:44.576Z,96.00
2017-09-06T07:40:13.032Z,96.20
2017-09-06T07:42:41.509Z,95.80
2017-09-06T07:45:09.974Z,95.60
2017-09-06T07:47:38.396Z,95.20
2017-09-06T07:50:06.813Z,95.90
2017-09-06T07:52:35.306Z,95.10
2017-09-06T07:55:03.726Z,93.90
2017-09-06T07:57:32.170Z,93.70
2017-09-06T08:00:00.598Z,94.20
2017-09-06T08:02:29.000Z,93.30
2017-09-06T08:04:57.472Z,93.00
2017-09-06T08:07:25.948Z,91.50
2017-09-06T08:09:54.397Z,92.00
2017-09-06T08:12:22.930Z,91.80
2017-09-06T08:14:51.332Z,91.80
2017-09-06T08:17:19.735Z,91.00
2017-09-06T08:19:48.230Z,88.80
2017-09-06T08:22:16.635Z,88.60
2017-09-06T08:24:45.036Z,88.90
2017-09-06T08:27:13.460Z,86.40
2017-09-06T08:29:41.870Z,84.90
2017-09-06T08:32:10.403Z,82.20
2017-09-06T08:34:38.854Z,82.80
2017-09-06T08:37:07.257Z,75.50
2017-09-06T08:39:36.897Z,71.30
2017-09-06T08:42:05.305Z,67.10
2017-09-06T08:44:33.770Z,64.60
2017-09-06T08:47:02.218Z,70.00
2017-09-06T08:49:30.624Z,66.70
2017-09-06T08:51:59.092Z,64.10
2017-09-06T08:54:27.528Z,62.20
2017-09-06T08:56:55.981Z,69.10
2017-09-06T08:59:24.484Z,66.60
2017-09-06T09:01:52.959Z,62.60
2017-09-06T09:04:21.377Z,64.10
2017-09-06T09:06:49.810Z,59.20
2017-09-06T09:09:18.237Z,59.50
2017-09-06T09:11:46.655Z,57.90
2017-09-06T09:14:15.053Z,58.90
2017-09-06T09:16:43.473Z,58.60
2017-09-06T09:19:11.882Z,58.90
2017-09-06T09:21:40.304Z,61.30
2017-09-06T09:24:09.055Z,55.60
2017-09-06T09:26:37.569Z,60.20
2017-09-06T09:29:06.037Z,57.70
2017-09-06T09:31:34.437Z,61.80
2017-09-06T09:34:02.827Z,62.20
2017-09-06T09:36:31.253Z,64.10
2017-09-06T09:38:59.762Z,66.10
2017-09-06T09:41:28.185Z,66.20
2017-09-06T09:43:56.598Z,67.10
2017-09-06T09:46:25.065Z,65.20
2017-09-06T09:48:53.611Z,66.90
2017-09-06T09:51:22.020Z,66.40
2017-09-06T09:53:50.441Z,68.80
2017-09-06T09:56:18.865Z,68.40
2017-09-06T09:58:47.270Z,67.40
2017-09-06T10:01:15.701Z,68.50
2017-09-06T10:03:44.163Z,70.00
2017-09-06T10:06:12.580Z,70.90
2017-09-06T10:08:41.020Z,72.20
2017-09-06T10:11:09.471Z,72.70
2017-09-06T10:13:37.888Z,68.60
2017-09-06T10:16:06.399Z,68.40
2017-09-06T10:18:34.884Z,67.30
2017-09-06T10:21:03.364Z,68.00
2017-09-06T10:23:31.765Z,67.60
2017-09-06T10:26:00.276Z,65.50
2017-09-06T10:28:28.762Z,66.50
2017-09-06T10:30:57.177Z,66.50
2017-09-06T10:33:25.618Z,65.50
2017-09-06T10:35:54.108Z,63.90
2017-09-06T10:38:22.539Z,63.20
2017-09-06T10:40:50.960Z,65.20
2017-09-06T10:43:19.550Z,64.70
2017-09-06T10:45:48.071Z,61.00
2017-09-06T10:48:16.502Z,58.00
2017-09-06T10:50:44.908Z,56.00
2017-09-06T10:53:13.317Z,55.20
2017-09-06T10:55:41.779Z,54.70
2017-09-06T10:58:10.434Z,53.10
2017-09-06T11:00:38.859Z,54.50
2017-09-06T11:03:07.444Z,61.20
2017-09-06T11:05:35.853Z,63.40
2017-09-06T11:08:04.293Z,62.20
2017-09-06T11:10:32.767Z,63.40
2017-09-06T11:13:01.200Z,58.90
2017-09-06T11:15:29.812Z,57.10
2017-09-06T11:17:58.289Z,54.50
2017-09-06T11:20:26.717Z,53.90
2017-09-06T11:22:55.102Z,47.60
2017-09-06T11:25:23.628Z,49.40
2017-09-06T11:27:52.056Z,48.20
2017-09-06T11:30:20.514Z,50.70
2017-09-06T11:32:48.975Z,51.90
2017-09-06T11:35:17.415Z,53.30
2017-09-06T11:37:45.885Z,54.20
2017-09-06T11:40:14.349Z,57.10
2017-09-06T11:42:42.981Z,54.10
2017-09-06T11:45:11.473Z,52.70
2017-09-06T11:47:39.919Z,55.30
2017-09-06T11:50:08.313Z,56.70
2017-09-06T11:52:36.894Z,53.20
2017-09-06T11:55:05.284Z,51.70
2017-09-06T11:57:33.754Z,53.10
2017-09-06T12:00:02.255Z,53.80
2017-09-06T12:02:30.671Z,56.30
2017-09-06T12:04:59.071Z,57.00
2017-09-06T12:07:27.526Z,56.90
2017-09-06T12:09:55.979Z,57.20
2017-09-06T12:12:24.470Z,58.90
2017-09-06T12:14:52.869Z,59.40
2017-09-06T12:17:21.313Z,58.80
2017-09-06T12:19:50.182Z,59.40
2017-09-06T12:22:18.592Z,58.30
2017-09-06T12:24:47.151Z,57.90
2017-09-06T12:27:15.548Z,58.90
2017-09-06T12:29:43.956Z,57.00
2017-09-06T12:32:12.400Z,57.80
2017-09-06T12:34:40.847Z,58.00
2017-09-06T12:37:09.407Z,58.30
2017-09-06T12:39:37.849Z,59.20
2017-09-06T12:42:06.252Z,60.20
2017-09-06T12:44:34.789Z,59.90
2017-09-06T12:47:03.329Z,58.40
2017-09-06T12:49:31.844Z,58.80
2017-09-06T12:52:00.312Z,59.10
2017-09-06T12:54:28.713Z,60.80
2017-09-06T12:56:57.140Z,61.40
2017-09-06T12:59:25.627Z,60.30
2017-09-06T13:01:54.059Z,59.60
2017-09-06T13:04:22.472Z,59.50
2017-09-06T13:06:50.976Z,61.10
2017-09-06T13:09:19.479Z,59.20
2017-09-06T13:11:47.938Z,61.40
2017-09-06T13:14:16.447Z,59.80
2017-09-06T13:16:44.898Z,60.50
2017-09-06T13:19:13.310Z,60.80
2017-09-06T13:21:41.736Z,58.80
2017-09-06T13:24:10.179Z,59.20
2017-09-06T13:26:38.656Z,60.10
2017-09-06T13:29:07.093Z,59.60
2017-09-06T13:31:35.482Z,60.10
2017-09-06T13:34:05.021Z,61.60
2017-09-06T13:36:33.533Z,63.40
2017-09-06T13:39:02.004Z,63.80
2017-09-06T13:41:30.454Z,64.00
2017-09-06T13:43:59.002Z,64.40
2017-09-06T13:46:27.407Z,64.50
2017-09-06T13:48:55.793Z,63.70
2017-09-06T13:51:24.292Z,64.40
2017-09-06T13:53:52.757Z,63.40
2017-09-06T13:56:21.175Z,64.50
2017-09-06T13:58:49.567Z,64.00
2017-09-06T14:01:18.017Z,65.20
2017-09-06T14:03:46.504Z,66.00
2017-09-06T14:06:14.993Z,66.20
2017-09-06T14:08:43.509Z,66.00
2017-09-06T14:11:11.920Z,64.90
2017-09-06T14:13:40.333Z,66.70
2017-09-06T14:16:08.845Z,67.10
2017-09-06T14:18:37.273Z,67.50
2017-09-06T14:21:05.717Z,67.20
2017-09-06T14:23:34.164Z,67.90
2017-09-06T14:26:02.792Z,67.20
2017-09-06T14:28:31.360Z,69.40
2017-09-06T14:31:00.699Z,69.80
2017-09-06T14:33:29.194Z,70.50
2017-09-06T14:35:57.652Z,71.70
2017-09-06T14:38:27.516Z,70.90
2017-09-06T14:40:55.951Z,70.90
2017-09-06T14:43:24.846Z,70.10
2017-09-06T14:45:53.760Z,68.40
2017-09-06T14:48:22.215Z,67.90
2017-09-06T14:50:53.596Z,67.50
2017-09-06T14:53:22.168Z,68.00
2017-09-06T14:55:50.851Z,67.90
2017-09-06T14:58:19.308Z,68.70
2017-09-06T15:00:47.693Z,67.50
2017-09-06T15:03:16.117Z,67.60
2017-09-06T15:05:44.612Z,68.00
2017-09-06T15:08:13.072Z,68.50
2017-09-06T15:10:41.556Z,69.30
2017-09-06T15:13:09.996Z,69.80
2017-09-06T15:15:38.433Z,72.80
2017-09-06T15:18:06.910Z,74.40
2017-09-06T15:23:09.924Z,75.80
2017-09-06T15:25:38.358Z,76.40
2017-09-06T15:28:06.769Z,75.00
2017-09-06T15:30:35.205Z,76.90
2017-09-06T15:33:03.651Z,78.10
2017-09-06T15:35:32.091Z,81.40
2017-09-06T15:38:00.501Z,85.30
2017-09-06T15:40:29.266Z,88.60
2017-09-06T15:42:57.716Z,90.40
2017-09-06T15:45:26.348Z,89.30
2017-09-06T15:47:54.961Z,90.30
2017-09-06T15:50:23.383Z,89.10
2017-09-06T15:52:51.779Z,89.20
2017-09-06T15:55:20.221Z,88.20
2017-09-06T15:57:48.727Z,87.00
2017-09-06T16:00:17.214Z,87.80
2017-09-06T16:02:45.601Z,83.90
2017-09-06T16:05:14.149Z,82.70
2017-09-06T16:07:42.564Z,82.10
2017-09-06T16:10:11.037Z,82.90
2017-09-06T16:12:39.497Z,82.10
2017-09-06T16:15:07.905Z,76.60
2017-09-06T16:17:36.331Z,74.80
2017-09-06T16:20:04.747Z,74.50
2017-09-06T16:22:33.166Z,74.10
2017-09-06T16:25:01.630Z,72.50
2017-09-06T16:27:30.099Z,73.50
2017-09-06T16:29:58.505Z,70.00
2017-09-06T16:32:27.003Z,69.10
2017-09-06T16:34:55.468Z,70.10
2017-09-06T16:37:23.961Z,68.60
2017-09-06T16:39:52.409Z,68.60
2017-09-06T16:42:20.872Z,69.30
2017-09-06T16:44:49.288Z,70.70
2017-09-06T16:47:17.719Z,71.20
2017-09-06T16:49:46.235Z,69.60
2017-09-06T16:52:14.724Z,69.90
2017-09-06T16:54:43.128Z,70.30
2017-09-06T16:57:11.532Z,70.00
2017-09-06T16:59:40.023Z,70.60
2017-09-06T17:02:08.635Z,70.50
2017-09-06T17:04:37.056Z,71.20
2017-09-06T17:07:05.551Z,71.40
2017-09-06T17:09:46.730Z,73.10
2017-09-06T17:12:15.171Z,73.10
2017-09-06T17:14:43.751Z,74.40
2017-09-06T17:17:12.168Z,74.90
2017-09-06T17:19:40.606Z,75.00
2017-09-06T17:22:09.026Z,74.90
2017-09-06T17:24:38.442Z,75.30
2017-09-06T17:27:06.894Z,75.60
2017-09-06T17:29:35.312Z,76.80
2017-09-06T17:32:03.774Z,77.10
2017-09-06T17:34:33.299Z,76.50
2017-09-06T17:37:01.842Z,75.50
2017-09-06T17:39:30.377Z,77.10
2017-09-06T17:41:58.845Z,76.70
2017-09-06T17:44:27.811Z,76.40
2017-09-06T17:46:57.169Z,76.20
2017-09-06T17:49:25.559Z,77.60
2017-09-06T17:51:54.328Z,76.30
2017-09-06T17:54:22.870Z,77.00
2017-09-06T17:56:51.395Z,76.70
2017-09-06T17:59:21.342Z,77.10
2017-09-06T18:01:50.160Z,76.20
2017-09-06T18:04:18.598Z,76.50
2017-09-06T18:06:47.020Z,75.40
2017-09-06T18:09:15.478Z,77.30
2017-09-06T18:11:43.912Z,76.00
2017-09-06T18:14:12.416Z,76.90
2017-09-06T18:16:40.883Z,76.40
2017-09-06T18:19:09.295Z,76.10
2017-09-06T18:21:37.728Z,75.60
2017-09-06T18:24:06.135Z,75.80
2017-09-06T18:26:34.613Z,76.30
2017-09-06T18:29:03.026Z,75.80
2017-09-06T18:31:31.450Z,76.30
2017-09-06T18:33:59.851Z,76.10
2017-09-06T18:36:28.326Z,76.50
2017-09-06T18:38:56.822Z,76.10
2017-09-06T18:41:25.227Z,76.60
2017-09-06T18:43:53.643Z,76.70
2017-09-06T18:46:22.108Z,77.70
2017-09-06T18:48:50.581Z,77.50
2017-09-06T18:51:19.093Z,77.40
2017-09-06T18:53:47.567Z,77.60
2017-09-06T18:56:15.960Z,78.00
2017-09-06T18:58:44.416Z,77.70
2017-09-06T19:01:12.843Z,77.50
2017-09-06T19:03:41.420Z,77.90
2017-09-06T19:06:09.883Z,78.60
2017-09-06T19:08:38.304Z,79.10
2017-09-06T19:11:06.735Z,80.30
2017-09-06T19:13:35.169Z,81.10
2017-09-06T19:16:03.582Z,81.40
2017-09-06T19:18:32.116Z,81.40
2017-09-06T19:21:00.532Z,81.50
2017-09-06T19:23:28.996Z,82.40
2017-09-06T19:25:57.462Z,81.20
2017-09-06T19:28:25.914Z,81.70
2017-09-06T19:30:54.334Z,84.60
2017-09-06T19:33:22.769Z,84.80
2017-09-06T19:35:51.182Z,86.40
2017-09-06T19:38:19.608Z,86.70
2017-09-06T19:40:48.168Z,87.30
2017-09-06T19:43:16.652Z,87.10
2017-09-06T19:45:45.310Z,87.50
2017-09-06T19:48:13.736Z,87.40
2017-09-06T19:50:42.151Z,88.00
2017-09-06T19:53:10.695Z,88.00
2017-09-06T19:55:39.902Z,88.00
2017-09-06T19:58:08.381Z,88.00
2017-09-06T20:00:36.784Z,87.60
2017-09-06T20:03:05.188Z,87.90
2017-09-06T20:05:34.412Z,87.60
2017-09-06T20:08:03.023Z,88.10
2017-09-06T20:10:31.538Z,88.50
2017-09-06T20:12:59.970Z,88.20
2017-09-06T20:15:28.396Z,88.80
2017-09-06T20:17:57.633Z,89.70
2017-09-06T20:20:26.051Z,89.70
2017-09-06T20:22:54.436Z,88.90
2017-09-06T20:25:22.902Z,89.30
2017-09-06T20:27:51.350Z,88.80
2017-09-06T20:30:19.834Z,90.00
2017-09-06T20:32:48.236Z,89.20
2017-09-06T20:35:16.745Z,88.70
2017-09-06T20:37:45.259Z,88.70
2017-09-06T20:40:13.771Z,89.30
2017-09-06T20:42:43.022Z,88.80
2017-09-06T20:45:11.433Z,88.80
2017-09-06T20:47:39.867Z,88.90
2017-09-06T20:50:08.355Z,89.40
2017-09-06T20:52:36.820Z,89.40
2017-09-06T20:55:05.224Z,89.10
2017-09-06T20:57:33.655Z,89.00
2017-09-06T21:00:02.119Z,88.30
2017-09-06T21:02:30.650Z,87.70
2017-09-06T21:04:59.115Z,87.50
2017-09-06T21:07:27.591Z,87.30
2017-09-06T21:09:56.795Z,88.40
2017-09-06T21:12:25.990Z,88.10
2017-09-06T21:14:54.401Z,88.10
2017-09-06T21:17:22.798Z,87.90
2017-09-06T21:19:51.880Z,88.50
2017-09-06T21:22:20.274Z,88.40
2017-09-06T21:24:48.673Z,88.80
2017-09-06T21:27:17.113Z,88.40
2017-09-06T21:29:45.690Z,89.80
2017-09-06T21:32:14.169Z,89.70
2017-09-06T21:34:42.627Z,90.10
2017-09-06T21:37:11.079Z,89.50
2017-09-06T21:39:39.482Z,89.50
2017-09-06T21:42:07.935Z,90.10
2017-09-06T21:44:36.335Z,90.00
2017-09-06T21:47:04.768Z,90.30
2017-09-06T21:49:33.331Z,89.70
2017-09-06T21:52:01.866Z,90.00
2017-09-06T21:54:30.375Z,89.70
2017-09-06T21:56:58.858Z,90.10
2017-09-06T21:59:27.340Z,90.30
2017-09-06T22:01:55.820Z,90.30
2017-09-06T22:04:24.220Z,90.40
2017-09-06T22:06:52.611Z,90.20
2017-09-06T22:09:21.117Z,90.20
2017-09-06T22:11:49.555Z,90.30
2017-09-06T22:14:17.982Z,90.50
2017-09-06T22:16:46.388Z,90.30
2017-09-06T22:19:14.862Z,90.30
2017-09-06T22:21:43.338Z,90.30
2017-09-06T22:24:11.800Z,90.30
2017-09-06T22:26:40.358Z,90.40
2017-09-06T22:29:08.769Z,90.30
2017-09-06T22:32:11.973Z,90.30
2017-09-06T22:34:41.210Z,90.20
2017-09-06T22:37:09.647Z,90.20
2017-09-06T22:39:38.119Z,90.20
2017-09-06T22:42:06.538Z,90.20
2017-09-06T22:44:35.107Z,90.40
2017-09-06T22:47:04.305Z,90.40
2017-09-06T22:49:32.800Z,90.40
2017-09-06T22:52:01.215Z,90.40
2017-09-06T22:54:29.617Z,90.40
2017-09-06T22:56:58.095Z,90.60
2017-09-06T22:59:26.577Z,90.70
2017-09-06T23:01:55.042Z,90.60
2017-09-06T23:04:24.252Z,90.50
2017-09-06T23:06:52.638Z,90.50
2017-09-06T23:09:21.798Z,91.10
2017-09-06T23:11:50.405Z,90.80
2017-09-06T23:14:18.814Z,90.60
2017-09-06T23:16:47.285Z,90.60
2017-09-06T23:19:15.692Z,90.70
2017-09-06T23:21:44.847Z,90.90
2017-09-06T23:24:13.290Z,90.90
2017-09-06T23:26:41.751Z,90.80
2017-09-06T23:29:10.962Z,90.80
2017-09-06T23:31:39.371Z,90.80
2017-09-06T23:34:07.816Z,90.50
2017-09-06T23:36:36.261Z,90.60
2017-09-06T23:39:04.818Z,90.50
2017-09-06T23:41:33.285Z,90.30
2017-09-06T23:44:01.769Z,90.70
2017-09-06T23:46:30.203Z,91.00
2017-09-06T23:48:59.366Z,91.00
2017-09-06T23:51:27.759Z,91.00
2017-09-06T23:53:56.228Z,91.20
2017-09-06T23:56:24.662Z,91.30
2017-09-06T23:58:53.130Z,91.10
